Observations for SHOREHAM-BY-SEA, United Kingdom (EGKA)

EGKA 230950Z 21011KT 9999 FEW025 19/14 Q1029
EGKA 230920Z 21012KT 9999 FEW022 19/13 Q1029
EGKA 230850Z 24007KT CAVOK 19/12 Q1029  
EGKA 230820Z 24007KT CAVOK 18/12 Q1029  
EGKA 230750Z 30005KT CAVOK 18/11 Q1029  
EGKA 221750Z 23011KT CAVOK 18/10 Q1029  
EGKA 221720Z 22011KT CAVOK 18/11 Q1029  
EGKA 221650Z 22013KT CAVOK 18/10 Q1029  
EGKA 221620Z 22011KT CAVOK 19/10 Q1029  
EGKA 221550Z 23012KT CAVOK 19/10 Q1029  
EGKA 221520Z 22012KT 9999 FEW045 19/09 Q1029
EGKA 221450Z 22013KT 9999 FEW045 19/09 Q1029
EGKA 221420Z 22012KT 9999 FEW045 20/10 Q1029
EGKA 221350Z 21012KT CAVOK 18/08 Q1030  
EGKA 221320Z 22014KT 9999 SCT045 18/08 Q1030
EGKA 221250Z 21011KT 9999 SCT045 19/10 Q1030
EGKA 221220Z 21012KT 9999 SCT040 19/09 Q1030
EGKA 221150Z 20011KT 9999 FEW035 19/11 Q1030
EGKA 221120Z 20011KT 9999 FEW035 19/11 Q1030
EGKA 221050Z 32003KT 9999 FEW035 20/11 Q1030
EGKA 221020Z 36005KT 9999 FEW030 19/09 Q1030
EGKA 220950Z 34003KT 9999 FEW026 18/08 Q1030
EGKA 220920Z 36008KT 9999 FEW022 18/10 Q1030